Time;durP1;ratioP1;P1;durP2;ratioP2;P2;SDS_P1;SDS_P2;PMS_P1;PMS_P2;Temp;Humidity;BMP_temperature;BMP_pressure;BME280_temperature;BME280_humidity;BME280_pressure;Samples;Min_cycle;Max_cycle;Signal;HPM_P1;HPM_P2
2023/01/11 00:01:01;;;;;;;61.33;36.67;;;;;;;;;;4404950;32;317588;-80
2023/01/11 00:03:29;;;;;;;53.27;34.00;;;;;;;;;;4414841;32;317403;-77
2023/01/11 00:05:57;;;;;;;55.90;34.97;;;;;;;;;;4398207;32;317822;-80
2023/01/11 00:08:25;;;;;;;56.27;32.77;;;;;;;;;;4398121;32;331662;-77
2023/01/11 00:10:52;;;;;;;50.90;33.97;;;;;;;;;;4398356;32;340673;-79
2023/01/11 00:13:19;;;;;;;54.03;33.70;;;;;;;;;;4399404;32;417603;-81
2023/01/11 00:15:46;;;;;;;51.37;33.90;;;;;;;;;;4412838;32;318139;-82
2023/01/11 00:18:14;;;;;;;55.38;35.08;;;;;;;;;;4405899;32;347205;-81
2023/01/11 00:20:41;;;;;;;52.90;33.27;;;;;;;;;;4415840;32;318265;-79
2023/01/11 00:23:08;;;;;;;53.20;34.93;;;;;;;;;;4408157;32;318081;-81
2023/01/11 00:25:35;;;;;;;66.30;37.30;;;;;;;;;;4417993;32;318290;-78
2023/01/11 00:28:02;;;;;;;60.10;36.97;;;;;;;;;;4406597;32;317643;-82
2023/01/11 00:30:34;;;;;;;63.87;38.50;;;;;;;;;;4415803;32;318356;-80
2023/01/11 00:33:01;;;;;;;64.87;37.57;;;;;;;;;;4407065;32;317800;-79
2023/01/11 00:35:31;;;;;;;65.40;38.77;;;;;;;;;;4415732;32;317834;-78
2023/01/11 00:37:58;;;;;;;65.97;42.43;;;;;;;;;;4405717;32;318429;-76
2023/01/11 00:40:25;;;;;;;76.37;46.40;;;;;;;;;;4414732;32;317422;-82
2023/01/11 00:48:21;;;;;;;76.07;45.07;;;;;;;;;;4403800;32;389173;-82
2023/01/11 00:50:49;;;;;;;68.93;42.57;;;;;;;;;;4417873;32;350018;-82
2023/01/11 00:53:17;;;;;;;59.10;38.73;;;;;;;;;;4405659;32;318561;-81
2023/01/11 00:55:43;;;;;;;63.53;40.23;;;;;;;;;;4416040;32;318153;-81
2023/01/11 00:58:10;;;;;;;50.07;31.80;;;;;;;;;;4405306;32;317675;-79
2023/01/11 01:00:37;;;;;;;49.30;30.60;;;;;;;;;;4416424;32;318279;-83
2023/01/11 01:03:04;;;;;;;42.23;27.67;;;;;;;;;;4405877;32;318056;-82
2023/01/11 01:05:31;;;;;;;48.43;28.40;;;;;;;;;;4415436;32;318324;-81
2023/01/11 01:07:59;;;;;;;51.67;29.87;;;;;;;;;;4405243;32;374710;-80
2023/01/11 01:10:25;;;;;;;41.03;27.30;;;;;;;;;;4414420;32;348692;-77
2023/01/11 01:15:36;;;;;;;50.43;30.17;;;;;;;;;;4400522;32;388062;-83
2023/01/11 01:18:03;;;;;;;54.73;34.47;;;;;;;;;;4403812;32;318330;-78
2023/01/11 01:20:30;;;;;;;55.73;35.57;;;;;;;;;;4413591;32;318479;-88
2023/01/11 01:22:57;;;;;;;60.00;36.13;;;;;;;;;;4403348;32;318275;-84
2023/01/11 01:25:25;;;;;;;53.63;33.97;;;;;;;;;;4412267;32;317712;-81
2023/01/11 01:27:52;;;;;;;49.97;31.50;;;;;;;;;;4413559;32;317743;-79
2023/01/11 01:30:19;;;;;;;45.43;31.43;;;;;;;;;;4399296;32;417563;-78
2023/01/11 01:32:46;;;;;;;42.87;26.40;;;;;;;;;;4413596;32;318663;-83
2023/01/11 01:35:13;;;;;;;37.10;22.97;;;;;;;;;;4402566;32;318237;-81
2023/01/11 01:37:39;;;;;;;39.33;22.57;;;;;;;;;;4412494;32;318151;-80
2023/01/11 01:40:07;;;;;;;39.33;24.27;;;;;;;;;;4403509;32;318084;-80
2023/01/11 01:42:35;;;;;;;41.73;24.43;;;;;;;;;;4413474;32;318414;-80
2023/01/11 01:45:06;;;;;;;42.27;26.23;;;;;;;;;;4403298;32;318515;-78
2023/01/11 01:47:38;;;;;;;38.33;23.70;;;;;;;;;;4412059;32;324462;-81
2023/01/11 01:50:11;;;;;;;42.30;24.20;;;;;;;;;;4402575;32;318349;-86
2023/01/11 01:52:38;;;;;;;38.37;24.93;;;;;;;;;;4414347;32;318714;-80
2023/01/11 01:55:10;;;;;;;36.97;22.40;;;;;;;;;;4405502;32;318125;-76
2023/01/11 01:57:41;;;;;;;36.03;22.47;;;;;;;;;;4423057;32;318418;-79
2023/01/11 02:00:09;;;;;;;36.07;21.80;;;;;;;;;;4418117;32;331605;-82
2023/01/11 02:02:37;;;;;;;33.33;21.13;;;;;;;;;;4427354;32;317200;-81
2023/01/11 02:05:06;;;;;;;35.07;21.53;;;;;;;;;;4412831;32;318099;-89
2023/01/11 02:07:35;;;;;;;32.77;20.57;;;;;;;;;;4402531;32;318426;-76
2023/01/11 02:10:05;;;;;;;36.73;21.33;;;;;;;;;;4387860;32;318363;-83
2023/01/11 02:12:37;;;;;;;34.10;21.63;;;;;;;;;;4403665;32;317577;-81
2023/01/11 02:15:07;;;;;;;38.23;22.10;;;;;;;;;;4402765;32;317685;-79
2023/01/11 02:17:33;;;;;;;33.40;23.40;;;;;;;;;;4413216;32;317990;-81
2023/01/11 02:20:11;;;;;;;40.07;25.77;;;;;;;;;;4404026;32;317609;-79
2023/01/11 02:23:06;;;;;;;41.83;24.20;;;;;;;;;;4413521;32;318066;-83
2023/01/11 02:26:02;;;;;;;38.20;26.17;;;;;;;;;;4399774;32;419830;-83
2023/01/11 02:28:34;;;;;;;52.93;29.37;;;;;;;;;;4399108;32;418734;-84
2023/01/11 02:31:09;;;;;;;47.07;28.33;;;;;;;;;;4402571;32;324335;-82
2023/01/11 02:33:46;;;;;;;44.80;28.17;;;;;;;;;;4412156;32;318478;-86
2023/01/11 02:36:21;;;;;;;36.83;23.10;;;;;;;;;;4402532;32;318159;-78
2023/01/11 02:38:56;;;;;;;39.57;23.97;;;;;;;;;;4412480;32;318393;-87
2023/01/11 02:45:00;;;;;;;34.00;21.53;;;;;;;;;;4392211;32;418725;-86
2023/01/11 02:47:17;;;;;;;42.33;26.30;;;;;;;;;;4391416;32;317603;-82
2023/01/11 02:49:50;;;;;;;30.50;19.17;;;;;;;;;;4401422;32;317808;-79
2023/01/11 02:52:23;;;;;;;30.90;18.43;;;;;;;;;;4389857;32;317562;-81
2023/01/11 02:54:56;;;;;;;26.83;18.70;;;;;;;;;;4401528;32;318193;-80
2023/01/11 02:57:25;;;;;;;31.80;19.67;;;;;;;;;;4384790;32;420133;-81
2023/01/11 02:59:56;;;;;;;42.63;25.67;;;;;;;;;;4399337;32;317686;-86
2023/01/11 03:02:23;;;;;;;39.27;24.13;;;;;;;;;;4387790;32;417796;-88
2023/01/11 03:04:50;;;;;;;31.50;20.57;;;;;;;;;;4404776;32;318308;-78
2023/01/11 03:07:32;;;;;;;34.93;23.20;;;;;;;;;;4404574;32;318638;-82
2023/01/11 03:10:12;;;;;;;45.67;25.00;;;;;;;;;;4405120;32;318269;-88
2023/01/11 03:12:53;;;;;;;40.13;26.03;;;;;;;;;;4415388;32;317690;-80
2023/01/11 03:16:01;;;;;;;39.10;24.67;;;;;;;;;;4402349;32;418020;-82
2023/01/11 03:18:35;;;;;;;38.37;23.03;;;;;;;;;;4398712;32;418635;-79
2023/01/11 03:21:13;;;;;;;37.40;23.43;;;;;;;;;;4394097;32;317682;-80
2023/01/11 03:23:52;;;;;;;35.90;22.90;;;;;;;;;;4399234;32;317633;-76
2023/01/11 03:26:28;;;;;;;108.17;55.27;;;;;;;;;;4387742;32;420449;-83
2023/01/11 03:29:05;;;;;;;117.77;58.70;;;;;;;;;;4388928;32;319357;-79
2023/01/11 03:31:38;;;;;;;84.43;47.20;;;;;;;;;;4400490;32;319292;-78
2023/01/11 03:34:13;;;;;;;75.20;38.13;;;;;;;;;;4389779;32;317944;-82
2023/01/11 03:36:43;;;;;;;58.00;28.97;;;;;;;;;;4409478;32;346099;-81
2023/01/11 03:39:16;;;;;;;51.27;25.07;;;;;;;;;;4405076;32;317764;-80
2023/01/11 03:41:44;;;;;;;49.97;25.07;;;;;;;;;;4413847;32;318508;-84
2023/01/11 03:44:14;;;;;;;41.70;21.73;;;;;;;;;;4404821;32;317887;-81
2023/01/11 03:46:45;;;;;;;37.57;20.87;;;;;;;;;;4415127;32;318742;-79
2023/01/11 03:49:15;;;;;;;38.87;18.70;;;;;;;;;;4403912;32;318305;-79
2023/01/11 03:51:43;;;;;;;34.87;18.23;;;;;;;;;;4415140;32;318215;-81
2023/01/11 03:54:14;;;;;;;34.83;19.43;;;;;;;;;;4404291;32;318370;-80
2023/01/11 03:56:47;;;;;;;36.00;18.77;;;;;;;;;;4414874;32;318353;-79
2023/01/11 03:59:14;;;;;;;35.30;17.77;;;;;;;;;;4403501;32;317673;-81
2023/01/11 04:01:43;;;;;;;27.47;18.43;;;;;;;;;;4413722;32;318737;-80
2023/01/11 04:04:10;;;;;;;35.07;21.43;;;;;;;;;;4398728;32;318070;-88
2023/01/11 04:06:38;;;;;;;40.80;23.13;;;;;;;;;;4412403;32;318381;-81
2023/01/11 04:09:05;;;;;;;34.80;21.93;;;;;;;;;;4389602;32;318132;-81
2023/01/11 04:11:32;;;;;;;55.33;25.47;;;;;;;;;;4399951;32;318348;-80
2023/01/11 04:13:59;;;;;;;39.33;23.60;;;;;;;;;;4404573;32;318627;-88
2023/01/11 04:16:26;;;;;;;44.97;22.47;;;;;;;;;;4405343;32;317882;-77
2023/01/11 04:18:54;;;;;;;45.20;25.70;;;;;;;;;;4414020;32;318349;-82
2023/01/11 04:21:21;;;;;;;48.43;24.90;;;;;;;;;;4400589;32;417691;-79
2023/01/11 04:23:48;;;;;;;64.47;30.47;;;;;;;;;;4414418;32;317764;-81
2023/01/11 04:26:16;;;;;;;75.47;31.47;;;;;;;;;;4404378;32;318277;-76
2023/01/11 04:28:43;;;;;;;72.80;33.77;;;;;;;;;;4414356;32;318247;-79
2023/01/11 04:31:10;;;;;;;53.30;27.17;;;;;;;;;;4404300;32;317550;-83
2023/01/11 04:33:36;;;;;;;48.20;23.43;;;;;;;;;;4414017;32;318290;-80
2023/01/11 04:36:06;;;;;;;45.30;26.07;;;;;;;;;;4404419;32;318613;-84
2023/01/11 04:38:33;;;;;;;42.83;23.73;;;;;;;;;;4412223;32;346888;-80
2023/01/11 04:43:40;;;;;;;37.13;19.37;;;;;;;;;;4413871;32;318289;-77
2023/01/11 04:46:09;;;;;;;37.47;19.83;;;;;;;;;;4402739;32;317701;-83
2023/01/11 04:48:36;;;;;;;39.77;19.10;;;;;;;;;;4412431;32;318155;-79
2023/01/11 04:51:03;;;;;;;41.77;21.93;;;;;;;;;;4402762;32;332903;-81
2023/01/11 04:53:31;;;;;;;45.17;24.40;;;;;;;;;;4414217;32;317655;-82
2023/01/11 04:56:00;;;;;;;45.53;24.20;;;;;;;;;;4403737;32;318340;-81
2023/01/11 04:58:26;;;;;;;44.93;21.40;;;;;;;;;;4413689;32;318140;-83
2023/01/11 05:00:53;;;;;;;32.90;18.50;;;;;;;;;;4408701;32;318756;-82
2023/01/11 05:03:20;;;;;;;46.87;25.80;;;;;;;;;;4412424;32;318514;-83
2023/01/11 05:05:55;;;;;;;45.40;26.20;;;;;;;;;;4412424;32;318245;-83
2023/01/11 05:08:21;;;;;;;40.80;27.87;;;;;;;;;;4400910;32;417443;-85
2023/01/11 05:10:53;;;;;;;36.00;22.27;;;;;;;;;;4412267;32;318218;-80
2023/01/11 05:13:20;;;;;;;30.17;17.63;;;;;;;;;;4400588;32;418325;-80
2023/01/11 05:15:47;;;;;;;28.03;18.07;;;;;;;;;;4413583;32;318282;-82
2023/01/11 05:18:14;;;;;;;34.37;20.30;;;;;;;;;;4402380;32;317475;-83
2023/01/11 05:20:41;;;;;;;33.23;20.17;;;;;;;;;;4415091;32;317500;-83
2023/01/11 05:23:07;;;;;;;34.50;20.17;;;;;;;;;;4403867;32;318423;-84
2023/01/11 05:25:34;;;;;;;35.10;21.97;;;;;;;;;;4412730;32;317756;-83
2023/01/11 05:28:02;;;;;;;36.63;20.70;;;;;;;;;;4402200;32;318321;-88
2023/01/11 05:30:29;;;;;;;40.43;23.20;;;;;;;;;;4412022;32;318109;-82
2023/01/11 05:32:56;;;;;;;36.33;23.17;;;;;;;;;;4401950;32;356232;-80
2023/01/11 05:35:24;;;;;;;34.23;20.83;;;;;;;;;;4412217;32;317450;-87
2023/01/11 05:37:50;;;;;;;27.60;19.10;;;;;;;;;;4413629;32;318560;-79
2023/01/11 05:40:17;;;;;;;31.10;19.60;;;;;;;;;;4403810;32;318233;-78
2023/01/11 05:42:46;;;;;;;35.53;21.23;;;;;;;;;;4415252;32;317707;-80
2023/01/11 05:45:28;;;;;;;37.53;22.37;;;;;;;;;;4418551;32;317501;-83
2023/01/11 05:47:55;;;;;;;32.90;20.50;;;;;;;;;;4415860;32;318448;-81
2023/01/11 05:50:22;;;;;;;42.87;25.60;;;;;;;;;;4420972;32;332212;-77
2023/01/11 05:52:49;;;;;;;46.17;24.63;;;;;;;;;;4420571;32;317734;-80
2023/01/11 05:55:16;;;;;;;45.20;26.60;;;;;;;;;;4402504;32;318238;-85
2023/01/11 05:57:43;;;;;;;42.23;24.63;;;;;;;;;;4413031;32;317699;-80
2023/01/11 06:00:12;;;;;;;43.53;22.20;;;;;;;;;;4401178;32;318509;-81
2023/01/11 06:02:40;;;;;;;38.87;22.87;;;;;;;;;;4412194;32;318287;-79
2023/01/11 06:05:08;;;;;;;43.03;26.00;;;;;;;;;;4402053;32;324570;-87
2023/01/11 06:07:35;;;;;;;51.73;27.57;;;;;;;;;;4396331;32;317545;-79
2023/01/11 06:10:02;;;;;;;53.33;28.23;;;;;;;;;;4386196;32;317560;-79
2023/01/11 06:12:29;;;;;;;57.57;33.33;;;;;;;;;;4403553;32;317696;-80
2023/01/11 06:14:58;;;;;;;63.63;34.27;;;;;;;;;;4403184;32;318189;-81
2023/01/11 06:17:24;;;;;;;84.30;44.70;;;;;;;;;;4412760;32;318425;-77
2023/01/11 06:19:52;;;;;;;98.33;54.83;;;;;;;;;;4412266;32;317589;-82
2023/01/11 06:22:19;;;;;;;109.07;56.20;;;;;;;;;;4399239;32;417956;-79
2023/01/11 06:24:46;;;;;;;111.63;59.17;;;;;;;;;;4410554;32;355952;-84
2023/01/11 06:27:13;;;;;;;115.90;61.97;;;;;;;;;;4403083;32;319266;-77
2023/01/11 06:29:39;;;;;;;114.90;63.60;;;;;;;;;;4412251;32;319481;-79
2023/01/11 06:32:07;;;;;;;108.57;62.70;;;;;;;;;;4400736;32;319178;-83
2023/01/11 06:34:34;;;;;;;106.90;59.87;;;;;;;;;;4412292;32;330744;-81
2023/01/11 06:37:02;;;;;;;114.30;65.17;;;;;;;;;;4402871;32;319372;-81
2023/01/11 06:39:29;;;;;;;122.30;73.57;;;;;;;;;;4412296;32;319566;-82
2023/01/11 06:41:55;;;;;;;121.97;68.90;;;;;;;;;;4392680;32;319275;-81
2023/01/11 06:44:22;;;;;;;113.40;66.20;;;;;;;;;;4391075;32;318781;-87
2023/01/11 06:46:49;;;;;;;106.63;60.43;;;;;;;;;;4404170;32;319348;-81
2023/01/11 06:49:16;;;;;;;79.57;51.20;;;;;;;;;;4387104;32;319269;-89
2023/01/11 06:51:42;;;;;;;83.13;55.63;;;;;;;;;;4397102;32;318261;-83
2023/01/11 06:54:10;;;;;;;66.67;40.20;;;;;;;;;;4386327;32;318091;-83
2023/01/11 06:56:37;;;;;;;60.97;39.07;;;;;;;;;;4397142;32;318241;-87
2023/01/11 06:59:04;;;;;;;80.47;44.17;;;;;;;;;;4387365;32;345576;-79
2023/01/11 07:01:31;;;;;;;60.73;37.13;;;;;;;;;;4395543;32;318457;-83
2023/01/11 07:03:57;;;;;;;53.03;34.63;;;;;;;;;;4386132;32;318221;-83
2023/01/11 07:06:24;;;;;;;58.90;38.83;;;;;;;;;;4407807;32;318620;-89
2023/01/11 07:08:51;;;;;;;74.93;46.27;;;;;;;;;;4410190;32;318484;-83
2023/01/11 07:11:19;;;;;;;85.57;50.10;;;;;;;;;;4399921;32;317944;-85
2023/01/11 07:13:46;;;;;;;87.70;52.50;;;;;;;;;;4409872;32;318333;-87
2023/01/11 07:16:13;;;;;;;95.27;51.27;;;;;;;;;;4401130;32;327593;-89
2023/01/11 07:18:40;;;;;;;92.73;53.63;;;;;;;;;;4411855;32;318087;-83
2023/01/11 07:21:06;;;;;;;96.77;55.40;;;;;;;;;;4401542;32;318189;-81
2023/01/11 07:23:34;;;;;;;94.37;57.00;;;;;;;;;;4411644;32;318114;-85
2023/01/11 07:26:01;;;;;;;89.80;57.70;;;;;;;;;;4401616;32;318361;-79
2023/01/11 07:28:29;;;;;;;85.30;54.40;;;;;;;;;;4413378;32;318065;-83
2023/01/11 07:30:57;;;;;;;95.13;57.57;;;;;;;;;;4402132;32;331218;-75
2023/01/11 07:33:24;;;;;;;92.87;60.20;;;;;;;;;;4415189;32;318254;-83
2023/01/11 07:35:51;;;;;;;125.73;74.07;;;;;;;;;;4403541;32;336446;-84
2023/01/11 07:38:18;;;;;;;132.83;77.00;;;;;;;;;;4387942;32;319410;-84
2023/01/11 07:40:45;;;;;;;120.30;71.60;;;;;;;;;;4402027;32;319627;-83
2023/01/11 07:43:17;;;;;;;144.10;79.50;;;;;;;;;;4405301;32;319281;-83
2023/01/11 07:45:48;;;;;;;142.97;80.20;;;;;;;;;;4413654;32;342739;-85
2023/01/11 07:48:19;;;;;;;146.90;78.73;;;;;;;;;;4404331;32;319576;-83
2023/01/11 07:50:47;;;;;;;133.07;74.83;;;;;;;;;;4415298;32;318662;-81
2023/01/11 07:53:14;;;;;;;127.20;76.17;;;;;;;;;;4403288;32;357071;-87
2023/01/11 07:55:41;;;;;;;126.07;73.40;;;;;;;;;;4414454;32;319236;-82
2023/01/11 07:58:10;;;;;;;417.27;221.93;;;;;;;;;;4404977;32;319539;-78
2023/01/11 08:00:37;;;;;;;187.43;110.53;;;;;;;;;;4414261;32;320850;-85
2023/01/11 08:03:05;;;;;;;150.33;93.17;;;;;;;;;;4404461;32;320361;-82
2023/01/11 08:05:32;;;;;;;165.17;98.90;;;;;;;;;;4411756;32;319718;-82
2023/01/11 08:07:59;;;;;;;140.63;83.77;;;;;;;;;;4388901;32;318789;-83
2023/01/11 08:10:26;;;;;;;196.07;100.03;;;;;;;;;;4399866;32;318525;-84
2023/01/11 08:15:36;;;;;;;194.73;94.67;;;;;;;;;;4386664;32;389321;-80
2023/01/11 08:18:06;;;;;;;107.43;53.93;;;;;;;;;;4392596;32;319245;-85
2023/01/11 08:20:33;;;;;;;132.50;62.83;;;;;;;;;;4401554;32;319686;-81
2023/01/11 08:23:03;;;;;;;184.53;76.57;;;;;;;;;;4391518;32;319448;-85
2023/01/11 08:25:31;;;;;;;244.90;93.10;;;;;;;;;;4410696;32;319265;-84
2023/01/11 08:28:00;;;;;;;148.20;65.57;;;;;;;;;;4406031;32;319142;-83
2023/01/11 08:30:27;;;;;;;124.40;61.80;;;;;;;;;;4415087;32;326099;-82
2023/01/11 08:32:55;;;;;;;109.33;56.57;;;;;;;;;;4404150;32;319355;-82
2023/01/11 08:35:24;;;;;;;156.20;56.50;;;;;;;;;;4415896;32;319787;-85
2023/01/11 08:37:51;;;;;;;242.23;92.77;;;;;;;;;;4416394;32;319264;-83
2023/01/11 08:40:18;;;;;;;170.30;70.77;;;;;;;;;;4405805;32;319385;-83
2023/01/11 08:42:45;;;;;;;149.97;51.10;;;;;;;;;;4413348;32;319189;-84
2023/01/11 08:45:11;;;;;;;106.30;51.60;;;;;;;;;;4402645;32;319015;-83
2023/01/11 08:47:39;;;;;;;92.80;40.70;;;;;;;;;;4412553;32;319197;-82
2023/01/11 08:50:07;;;;;;;112.40;42.77;;;;;;;;;;4403605;32;317865;-81
2023/01/11 08:52:42;;;;;;;100.70;49.97;;;;;;;;;;4412324;32;319515;-84
2023/01/11 08:55:09;;;;;;;156.90;73.37;;;;;;;;;;4403580;32;319199;-83
2023/01/11 08:57:36;;;;;;;92.70;46.30;;;;;;;;;;4414294;32;319470;-85
2023/01/11 09:00:04;;;;;;;99.37;49.93;;;;;;;;;;4402644;32;336761;-80
2023/01/11 09:02:31;;;;;;;145.77;81.23;;;;;;;;;;4413091;32;317426;-82
2023/01/11 09:04:58;;;;;;;105.97;47.63;;;;;;;;;;4402582;32;319279;-78
2023/01/11 09:07:28;;;;;;;110.73;52.23;;;;;;;;;;4414372;32;319725;-79
2023/01/11 09:09:56;;;;;;;100.27;47.90;;;;;;;;;;4401741;32;318751;-81
2023/01/11 09:12:23;;;;;;;95.17;49.90;;;;;;;;;;4413294;32;319238;-80
2023/01/11 09:14:49;;;;;;;96.20;49.53;;;;;;;;;;4412416;32;318088;-83
2023/01/11 09:17:16;;;;;;;98.33;51.03;;;;;;;;;;4402897;32;357884;-83
2023/01/11 09:19:43;;;;;;;100.03;50.63;;;;;;;;;;4415254;32;318235;-84
2023/01/11 09:22:09;;;;;;;111.30;56.93;;;;;;;;;;4403115;32;319243;-79
2023/01/11 09:24:36;;;;;;;104.63;55.50;;;;;;;;;;4414705;32;319385;-78
2023/01/11 09:27:04;;;;;;;96.10;50.83;;;;;;;;;;4405811;32;318373;-80
2023/01/11 09:29:31;;;;;;;97.87;49.97;;;;;;;;;;4417934;32;317766;-85
2023/01/11 09:31:58;;;;;;;71.37;38.90;;;;;;;;;;4419389;32;316949;-84
2023/01/11 09:34:26;;;;;;;65.30;36.67;;;;;;;;;;4428482;32;317842;-88
2023/01/11 09:36:54;;;;;;;66.53;37.13;;;;;;;;;;4422174;32;316895;-87
2023/01/11 09:39:25;;;;;;;77.97;40.20;;;;;;;;;;4406258;32;416961;-82
2023/01/11 09:42:36;;;;;;;69.10;40.70;;;;;;;;;;4412018;32;318316;-91
2023/01/11 09:45:14;;;;;;;100.17;52.90;;;;;;;;;;4387783;32;417875;-77
2023/01/11 09:47:45;;;;;;;76.50;43.20;;;;;;;;;;4412840;32;319403;-84
2023/01/11 09:50:17;;;;;;;71.47;40.40;;;;;;;;;;4403511;32;326756;-85
2023/01/11 09:52:46;;;;;;;68.87;39.67;;;;;;;;;;4412720;32;317763;-86
2023/01/11 09:55:20;;;;;;;82.37;45.37;;;;;;;;;;4403841;32;317436;-89
2023/01/11 09:58:13;;;;;;;79.40;45.20;;;;;;;;;;4412344;32;318100;-81
2023/01/11 10:00:50;;;;;;;82.87;46.47;;;;;;;;;;4398476;32;419112;-78
2023/01/11 10:03:40;;;;;;;67.70;42.47;;;;;;;;;;4402977;32;318015;-83
2023/01/11 10:06:16;;;;;;;73.17;42.77;;;;;;;;;;4394409;32;318495;-84
2023/01/11 10:08:57;;;;;;;76.80;44.07;;;;;;;;;;4397444;32;318286;-83
2023/01/11 10:11:34;;;;;;;75.80;44.20;;;;;;;;;;4396032;32;419167;-89
2023/01/11 10:14:13;;;;;;;87.73;52.47;;;;;;;;;;4401205;32;318290;-83
2023/01/11 10:16:49;;;;;;;96.50;54.03;;;;;;;;;;4410346;32;318258;-79
2023/01/11 10:19:21;;;;;;;87.27;50.53;;;;;;;;;;4402975;32;317911;-83
2023/01/11 10:21:53;;;;;;;89.33;50.60;;;;;;;;;;4411483;32;325880;-87
2023/01/11 10:24:24;;;;;;;98.93;52.70;;;;;;;;;;4400125;32;420548;-80
2023/01/11 10:26:56;;;;;;;112.87;63.43;;;;;;;;;;4412636;32;318138;-92
2023/01/11 10:29:45;;;;;;;145.00;74.63;;;;;;;;;;4399465;32;419275;-89
2023/01/11 10:35:28;;;;;;;189.43;92.40;;;;;;;;;;4393762;32;319184;-89
2023/01/11 10:38:09;;;;;;;171.80;89.13;;;;;;;;;;4402627;32;319246;-77
2023/01/11 10:43:28;;;;;;;166.07;84.90;;;;;;;;;;4400180;32;391854;-84
2023/01/11 10:45:59;;;;;;;172.37;85.60;;;;;;;;;;4401059;32;319451;-80
2023/01/11 10:48:30;;;;;;;167.00;88.00;;;;;;;;;;4412644;32;319936;-80
2023/01/11 10:51:03;;;;;;;157.53;79.77;;;;;;;;;;4402332;32;319265;-81
2023/01/11 10:53:35;;;;;;;148.07;79.43;;;;;;;;;;4413096;32;319532;-83
2023/01/11 10:56:15;;;;;;;156.27;79.53;;;;;;;;;;4400969;32;351315;-86
2023/01/11 10:59:03;;;;;;;138.60;77.13;;;;;;;;;;4412574;32;319212;-83
2023/01/11 11:01:47;;;;;;;130.60;74.77;;;;;;;;;;4398971;32;420969;-86
2023/01/11 11:04:28;;;;;;;143.47;79.37;;;;;;;;;;4404444;32;340536;-79
2023/01/11 11:07:04;;;;;;;134.50;74.53;;;;;;;;;;4402891;32;320324;-82
2023/01/11 11:09:41;;;;;;;141.63;77.57;;;;;;;;;;4414066;32;318377;-86
2023/01/11 11:12:12;;;;;;;153.60;81.53;;;;;;;;;;4403860;32;319829;-87
2023/01/11 11:14:44;;;;;;;163.97;87.00;;;;;;;;;;4414411;32;318604;-81
2023/01/11 11:17:21;;;;;;;145.77;81.53;;;;;;;;;;4405600;32;319252;-84
2023/01/11 11:19:48;;;;;;;130.90;76.77;;;;;;;;;;4416272;32;319641;-84
2023/01/11 11:22:15;;;;;;;20.20;13.67;;;;;;;;;;4404845;32;319483;-85
2023/01/11 11:24:45;;;;;;;24.80;15.47;;;;;;;;;;4413522;32;317911;-85
2023/01/11 11:27:21;;;;;;;29.93;15.80;;;;;;;;;;4403906;32;349795;-82
2023/01/11 11:29:51;;;;;;;42.87;21.93;;;;;;;;;;4413584;32;318344;-82
2023/01/11 11:32:24;;;;;;;41.77;22.47;;;;;;;;;;4402854;32;349875;-79
2023/01/11 11:34:51;;;;;;;49.97;22.57;;;;;;;;;;4414037;32;335544;-84
2023/01/11 11:37:27;;;;;;;36.73;21.73;;;;;;;;;;4405144;32;319099;-80
2023/01/11 11:39:55;;;;;;;37.37;21.17;;;;;;;;;;4412169;32;318631;-83
2023/01/11 11:42:22;;;;;;;28.77;16.77;;;;;;;;;;4413431;32;343560;-85
2023/01/11 11:45:17;;;;;;;44.47;21.10;;;;;;;;;;4411579;32;317902;-86
2023/01/11 11:48:00;;;;;;;27.73;16.07;;;;;;;;;;4403279;32;418344;-83
2023/01/11 11:50:28;;;;;;;16.47;9.80;;;;;;;;;;4401876;32;417878;-80
2023/01/11 11:53:01;;;;;;;382.50;215.73;;;;;;;;;;4405258;32;317847;-83
2023/01/11 11:55:30;;;;;;;255.97;147.20;;;;;;;;;;4413583;32;320371;-83
2023/01/11 11:57:59;;;;;;;47.90;33.13;;;;;;;;;;4402568;32;320943;-83
2023/01/11 12:00:29;;;;;;;33.60;20.97;;;;;;;;;;4418007;32;317624;-84
2023/01/11 12:03:04;;;;;;;31.73;17.50;;;;;;;;;;4403852;32;319002;-82
2023/01/11 12:05:31;;;;;;;30.13;17.50;;;;;;;;;;4412186;32;318245;-85
2023/01/11 12:07:59;;;;;;;16.73;11.77;;;;;;;;;;4402935;32;318501;-84
2023/01/11 12:10:28;;;;;;;14.30;10.30;;;;;;;;;;4413880;32;318498;-84
2023/01/11 12:12:57;;;;;;;15.13;9.70;;;;;;;;;;4404386;32;318197;-86
2023/01/11 12:15:25;;;;;;;20.57;10.13;;;;;;;;;;4412020;32;317445;-85
2023/01/11 12:17:53;;;;;;;14.63;8.53;;;;;;;;;;4414033;32;318631;-84
2023/01/11 12:20:41;;;;;;;15.93;9.87;;;;;;;;;;4399972;32;416678;-85
2023/01/11 12:23:16;;;;;;;15.10;8.67;;;;;;;;;;4402975;32;317598;-79
2023/01/11 12:26:11;;;;;;;20.77;11.40;;;;;;;;;;4414275;32;317240;-84
2023/01/11 12:29:15;;;;;;;10.57;6.90;;;;;;;;;;4398047;32;418127;-81
2023/01/11 12:32:04;;;;;;;18.40;8.83;;;;;;;;;;4382803;32;417261;-77
2023/01/11 12:34:43;;;;;;;30.17;17.80;;;;;;;;;;4401252;32;389960;-84
2023/01/11 12:37:24;;;;;;;16.57;8.90;;;;;;;;;;4404452;32;318679;-89
2023/01/11 12:39:59;;;;;;;13.93;8.67;;;;;;;;;;4413689;32;317261;-84
2023/01/11 12:42:45;;;;;;;16.40;9.73;;;;;;;;;;4401933;32;418739;-84
2023/01/11 12:45:21;;;;;;;16.97;11.90;;;;;;;;;;4404001;32;317496;-83
2023/01/11 12:48:10;;;;;;;23.93;12.00;;;;;;;;;;4414327;32;318852;-85
2023/01/11 12:50:47;;;;;;;37.20;24.70;;;;;;;;;;4400440;32;418924;-85
2023/01/11 12:53:36;;;;;;;23.93;14.47;;;;;;;;;;4404663;32;318209;-84
2023/01/11 12:56:30;;;;;;;20.23;13.23;;;;;;;;;;4403195;32;318667;-86
2023/01/11 12:59:01;;;;;;;30.80;18.53;;;;;;;;;;4402256;32;317860;-80
2023/01/11 13:01:40;;;;;;;22.03;13.20;;;;;;;;;;4415596;32;318545;-80
2023/01/11 13:04:39;;;;;;;23.83;14.83;;;;;;;;;;4404382;32;318314;-84
2023/01/11 13:07:14;;;;;;;35.87;21.23;;;;;;;;;;4405259;32;318571;-83
2023/01/11 13:09:54;;;;;;;31.87;17.10;;;;;;;;;;4414440;32;317777;-85
2023/01/11 13:12:27;;;;;;;27.67;17.20;;;;;;;;;;4405333;32;419811;-81
2023/01/11 13:15:13;;;;;;;26.00;15.40;;;;;;;;;;4409385;32;318107;-82
2023/01/11 13:17:44;;;;;;;23.93;11.53;;;;;;;;;;4424226;32;318718;-80
2023/01/11 13:20:25;;;;;;;14.53;8.87;;;;;;;;;;4412441;32;317928;-78
2023/01/11 13:22:58;;;;;;;18.70;9.97;;;;;;;;;;4422299;32;317254;-90
2023/01/11 13:25:28;;;;;;;22.47;12.87;;;;;;;;;;4410794;32;417153;-89
2023/01/11 13:27:57;;;;;;;32.90;16.57;;;;;;;;;;4407710;32;317805;-86
2023/01/11 13:30:25;;;;;;;26.90;18.20;;;;;;;;;;4414656;32;318424;-80
2023/01/11 13:32:56;;;;;;;32.70;16.67;;;;;;;;;;4416649;32;331011;-86
2023/01/11 13:35:33;;;;;;;30.47;16.10;;;;;;;;;;4400806;32;417027;-84
2023/01/11 13:38:09;;;;;;;28.37;17.07;;;;;;;;;;4405288;32;318914;-87
2023/01/11 13:40:43;;;;;;;27.87;17.43;;;;;;;;;;4412892;32;318319;-87
2023/01/11 13:43:15;;;;;;;37.97;23.57;;;;;;;;;;4390056;32;318684;-82
2023/01/11 13:45:48;;;;;;;36.77;22.00;;;;;;;;;;4398029;32;318508;-83
2023/01/11 13:48:22;;;;;;;29.57;18.77;;;;;;;;;;4387531;32;320770;-85
2023/01/11 13:50:54;;;;;;;45.73;21.97;;;;;;;;;;4399205;32;317858;-81
2023/01/11 13:53:31;;;;;;;17.77;10.83;;;;;;;;;;4387869;32;416242;-77
2023/01/11 13:56:05;;;;;;;15.70;9.43;;;;;;;;;;4388417;32;318088;-82
2023/01/11 13:58:37;;;;;;;18.20;10.77;;;;;;;;;;4398001;32;317303;-80
2023/01/11 14:01:07;;;;;;;16.67;10.10;;;;;;;;;;4387077;32;334558;-86
2023/01/11 14:03:42;;;;;;;20.73;10.23;;;;;;;;;;4398018;32;318103;-88
2023/01/11 14:06:26;;;;;;;20.87;10.80;;;;;;;;;;4395084;32;319202;-78
2023/01/11 14:09:07;;;;;;;29.77;14.80;;;;;;;;;;4412291;32;318442;-85
2023/01/11 14:11:44;;;;;;;22.57;12.47;;;;;;;;;;4400239;32;418861;-83
2023/01/11 14:14:38;;;;;;;27.07;16.07;;;;;;;;;;4403391;32;318925;-83
2023/01/11 14:17:32;;;;;;;18.50;11.30;;;;;;;;;;4401774;32;351619;-86
2023/01/11 14:20:06;;;;;;;14.27;9.03;;;;;;;;;;4402416;32;318862;-83
2023/01/11 14:22:41;;;;;;;9.27;5.97;;;;;;;;;;4414235;32;317310;-80
2023/01/11 14:25:16;;;;;;;24.83;13.57;;;;;;;;;;4402489;32;316320;-84
2023/01/11 14:28:14;;;;;;;22.53;15.37;;;;;;;;;;4410808;32;346985;-81
2023/01/11 14:31:19;;;;;;;20.90;14.50;;;;;;;;;;4396609;32;420331;-87
2023/01/11 14:34:36;;;;;;;17.97;12.30;;;;;;;;;;4399041;32;418905;-91
2023/01/11 14:37:31;;;;;;;26.83;13.43;;;;;;;;;;4400265;32;419458;-85
2023/01/11 14:40:20;;;;;;;13.40;9.83;;;;;;;;;;4380555;32;318949;-83
2023/01/11 14:43:25;;;;;;;16.43;9.90;;;;;;;;;;4414724;32;317250;-78
2023/01/11 14:46:09;;;;;;;7.13;5.67;;;;;;;;;;4412770;32;417413;-80
2023/01/11 14:48:46;;;;;;;10.13;7.00;;;;;;;;;;4401856;32;416290;-83
2023/01/11 14:51:25;;;;;;;8.27;6.03;;;;;;;;;;4398668;32;318548;-83
2023/01/11 14:53:57;;;;;;;9.70;7.97;;;;;;;;;;4402342;32;315455;-82